createdAt,value
2023-05-01T00:01:41.449Z,4.75
2023-05-01T00:04:08.069Z,5.07
2023-05-01T00:06:34.698Z,6.35
2023-05-01T00:09:01.648Z,5.20
2023-05-01T00:11:28.196Z,4.97
2023-05-01T00:13:54.754Z,5.32
2023-05-01T00:16:21.497Z,5.60
2023-05-01T00:18:48.050Z,5.30
2023-05-01T00:21:14.639Z,4.95
2023-05-01T00:23:41.196Z,4.88
2023-05-01T00:26:08.062Z,8.30
2023-05-01T00:28:34.759Z,5.38
2023-05-01T00:31:01.281Z,7.07
2023-05-01T00:33:27.818Z,4.82
2023-05-01T00:35:55.667Z,5.57
2023-05-01T00:38:24.022Z,5.53
2023-05-01T00:40:50.825Z,7.10
2023-05-01T00:43:17.364Z,6.32
2023-05-01T00:45:45.994Z,5.63
2023-05-01T00:48:13.090Z,6.22
2023-05-01T00:50:40.761Z,7.82
2023-05-01T00:53:07.413Z,6.82
2023-05-01T00:55:35.838Z,8.43
2023-05-01T00:58:03.484Z,7.28
2023-05-01T01:00:30.114Z,6.38
2023-05-01T01:02:57.007Z,6.88
2023-05-01T01:05:28.002Z,6.85
2023-05-01T01:10:43.982Z,6.47
2023-05-01T01:13:10.542Z,6.35
2023-05-01T01:15:53.727Z,7.72
2023-05-01T01:18:25.645Z,10.40
2023-05-01T01:21:16.841Z,6.70
2023-05-01T01:26:31.552Z,11.05
2023-05-01T01:29:23.102Z,7.25
2023-05-01T01:32:09.759Z,7.75
2023-05-01T01:34:50.393Z,6.80
2023-05-01T01:37:22.069Z,8.60
2023-05-01T01:40:09.764Z,10.93
2023-05-01T01:42:48.638Z,7.15
2023-05-01T01:45:23.758Z,7.82
2023-05-01T01:47:52.893Z,7.32
2023-05-01T01:50:22.448Z,7.38
2023-05-01T01:52:50.072Z,7.82
2023-05-01T01:55:21.054Z,6.97
2023-05-01T02:00:16.382Z,7.50
2023-05-01T02:02:44.705Z,7.38
2023-05-01T02:05:17.453Z,10.88
2023-05-01T02:07:47.223Z,8.95
2023-05-01T02:10:16.047Z,8.70
2023-05-01T02:12:45.854Z,10.93
2023-05-01T02:15:13.741Z,7.53
2023-05-01T02:17:41.434Z,7.97
2023-05-01T02:20:10.253Z,9.88
2023-05-01T02:22:38.047Z,8.98
2023-05-01T02:25:07.136Z,10.55
2023-05-01T02:27:40.814Z,8.38
2023-05-01T02:30:08.352Z,10.25
2023-05-01T02:32:35.103Z,10.63
2023-05-01T02:35:01.851Z,11.10
2023-05-01T02:37:30.219Z,7.47
2023-05-01T02:39:57.468Z,7.68
2023-05-01T02:42:26.663Z,12.23
2023-05-01T02:45:03.758Z,9.63
2023-05-01T02:47:33.677Z,8.07
2023-05-01T02:50:01.602Z,12.57
2023-05-01T02:52:29.503Z,10.10
2023-05-01T02:54:56.768Z,8.07
2023-05-01T02:57:23.694Z,7.65
2023-05-01T02:59:50.281Z,9.75
2023-05-01T03:02:16.934Z,8.77
2023-05-01T03:04:43.801Z,7.03
2023-05-01T03:07:10.504Z,8.15
2023-05-01T03:09:37.364Z,8.27
2023-05-01T03:12:04.074Z,8.75
2023-05-01T03:14:30.718Z,9.88
2023-05-01T03:16:58.199Z,9.00
2023-05-01T03:19:24.865Z,11.63
2023-05-01T03:21:51.450Z,7.82
2023-05-01T03:24:18.010Z,9.80
2023-05-01T03:26:44.567Z,7.72
2023-05-01T03:29:13.166Z,7.75
2023-05-01T03:31:39.712Z,10.40
2023-05-01T03:34:06.365Z,9.43
2023-05-01T03:36:33.806Z,9.38
2023-05-01T03:39:00.775Z,13.32
2023-05-01T03:41:27.513Z,8.45
2023-05-01T03:43:54.125Z,8.23
2023-05-01T03:46:21.151Z,11.10
2023-05-01T03:48:47.852Z,10.70
2023-05-01T03:51:17.027Z,9.35
2023-05-01T03:53:43.687Z,9.13
2023-05-01T03:56:10.258Z,8.18
2023-05-01T03:58:37.126Z,8.60
2023-05-01T04:01:03.815Z,7.97
2023-05-01T04:03:30.427Z,11.68
2023-05-01T04:05:57.420Z,9.13
2023-05-01T04:08:24.353Z,9.02
2023-05-01T04:10:50.948Z,10.82
2023-05-01T04:13:17.619Z,7.78
2023-05-01T04:15:45.982Z,9.20
2023-05-01T04:18:12.705Z,8.32
2023-05-01T04:20:40.202Z,7.68
2023-05-01T04:23:07.527Z,9.48
2023-05-01T04:25:34.060Z,8.65
2023-05-01T04:28:00.595Z,9.05
2023-05-01T04:30:27.252Z,8.82
2023-05-01T04:32:54.168Z,10.80
2023-05-01T04:35:20.881Z,10.23
2023-05-01T04:37:47.543Z,9.82
2023-05-01T04:40:14.210Z,8.68
2023-05-01T04:42:40.813Z,9.57
2023-05-01T04:45:07.614Z,9.65
2023-05-01T04:47:34.211Z,10.27
2023-05-01T04:50:01.161Z,11.32
2023-05-01T04:52:27.716Z,9.93
2023-05-01T04:54:54.229Z,9.25
2023-05-01T04:57:20.777Z,9.00
2023-05-01T04:59:48.208Z,9.20
2023-05-01T05:02:14.863Z,11.75
2023-05-01T05:04:41.561Z,12.70
2023-05-01T05:07:09.255Z,9.40
2023-05-01T05:09:36.523Z,9.57
2023-05-01T05:12:04.529Z,10.40
2023-05-01T05:14:31.419Z,12.07
2023-05-01T05:16:58.328Z,9.43
2023-05-01T05:19:25.324Z,10.27
2023-05-01T05:21:52.048Z,9.55
2023-05-01T05:24:18.747Z,12.45
2023-05-01T05:26:45.258Z,11.18
2023-05-01T05:29:11.779Z,11.20
2023-05-01T05:31:38.455Z,10.52
2023-05-01T05:34:05.005Z,11.02
2023-05-01T05:36:31.774Z,10.32
2023-05-01T05:38:59.655Z,13.02
2023-05-01T05:41:26.965Z,10.15
2023-05-01T05:43:54.208Z,11.60
2023-05-01T05:46:20.920Z,11.07
2023-05-01T05:48:47.495Z,10.90
2023-05-01T05:51:14.179Z,9.80
2023-05-01T05:53:40.711Z,10.95
2023-05-01T05:56:07.607Z,9.98
2023-05-01T05:58:34.291Z,11.20
2023-05-01T06:01:00.877Z,10.57
2023-05-01T06:03:27.706Z,9.90
2023-05-01T06:05:54.890Z,10.13
2023-05-01T06:08:22.265Z,13.88
2023-05-01T06:10:48.804Z,10.35
2023-05-01T06:13:16.229Z,10.07
2023-05-01T06:15:43.562Z,11.50
2023-05-01T06:18:10.379Z,13.15
2023-05-01T06:20:37.043Z,10.15
2023-05-01T06:23:03.890Z,9.68
2023-05-01T06:25:30.939Z,14.82
2023-05-01T06:27:57.519Z,10.00
2023-05-01T06:30:24.057Z,9.40
2023-05-01T06:32:50.678Z,9.55
2023-05-01T06:35:17.409Z,9.70
2023-05-01T06:37:43.970Z,10.93
2023-05-01T06:40:11.212Z,8.63
2023-05-01T06:42:40.868Z,7.68
2023-05-01T06:45:08.306Z,8.07
2023-05-01T06:47:35.314Z,8.00
2023-05-01T06:50:04.418Z,8.55
2023-05-01T06:52:31.970Z,6.87
2023-05-01T06:54:58.742Z,7.88
2023-05-01T06:57:25.286Z,7.60
2023-05-01T06:59:51.897Z,8.55
2023-05-01T07:02:18.535Z,7.40
2023-05-01T07:04:45.238Z,6.22
2023-05-01T07:07:11.964Z,8.32
2023-05-01T07:09:38.771Z,7.63
2023-05-01T07:12:06.695Z,7.30
2023-05-01T07:14:35.734Z,7.65
2023-05-01T07:17:03.447Z,7.82
2023-05-01T07:19:30.135Z,7.70
2023-05-01T07:21:56.766Z,8.70
2023-05-01T07:24:23.341Z,7.43
2023-05-01T07:26:49.893Z,6.53
2023-05-01T07:29:16.558Z,8.27
2023-05-01T07:31:44.100Z,8.10
2023-05-01T07:34:11.786Z,8.23
2023-05-01T07:36:38.499Z,8.00
2023-05-01T07:39:05.088Z,8.73
2023-05-01T07:41:31.709Z,7.60
2023-05-01T07:44:01.445Z,8.73
2023-05-01T07:46:28.045Z,7.88
2023-05-01T07:48:54.684Z,9.15
2023-05-01T07:51:21.562Z,8.75
2023-05-01T07:53:49.296Z,8.10
2023-05-01T07:56:16.120Z,8.40
2023-05-01T07:58:43.794Z,9.20
2023-05-01T08:01:10.626Z,8.48
2023-05-01T08:03:37.460Z,8.43
2023-05-01T08:06:04.503Z,8.35
2023-05-01T08:08:31.182Z,7.93
2023-05-01T08:10:57.768Z,8.43
2023-05-01T08:13:24.428Z,8.10
2023-05-01T08:15:51.044Z,7.85
2023-05-01T08:18:20.913Z,8.25
2023-05-01T08:20:48.581Z,9.35
2023-05-01T08:23:16.849Z,9.05
2023-05-01T08:25:46.717Z,7.28
2023-05-01T08:28:16.994Z,8.25
2023-05-01T08:30:44.392Z,7.50
2023-05-01T08:33:11.047Z,8.85
2023-05-01T08:35:37.684Z,8.40
2023-05-01T08:38:04.260Z,6.70
2023-05-01T08:40:33.150Z,8.20
2023-05-01T08:43:02.548Z,8.23
2023-05-01T08:45:35.729Z,7.63
2023-05-01T08:48:06.811Z,7.43
2023-05-01T08:50:36.770Z,7.38
2023-05-01T08:53:04.609Z,6.97
2023-05-01T08:55:32.474Z,6.93
2023-05-01T08:57:59.579Z,6.82
2023-05-01T09:00:27.266Z,6.60
2023-05-01T09:02:55.091Z,6.25
2023-05-01T09:05:21.846Z,9.88
2023-05-01T09:07:49.424Z,5.88
2023-05-01T09:10:20.092Z,6.22
2023-05-01T09:12:55.196Z,6.28
2023-05-01T09:15:22.280Z,9.50
2023-05-01T09:17:48.925Z,6.90
2023-05-01T09:20:17.219Z,7.05
2023-05-01T09:22:43.780Z,6.28
2023-05-01T09:25:10.928Z,5.65
2023-05-01T09:27:40.722Z,5.75
2023-05-01T09:30:08.868Z,6.72
2023-05-01T09:32:35.922Z,5.10
2023-05-01T09:35:13.886Z,5.60
2023-05-01T09:37:41.355Z,4.32
2023-05-01T09:40:09.383Z,4.40
2023-05-01T09:42:37.929Z,4.60
2023-05-01T09:45:11.693Z,4.15
2023-05-01T09:47:38.525Z,5.32
2023-05-01T09:50:05.504Z,4.25
2023-05-01T09:52:33.746Z,4.00
2023-05-01T09:55:17.529Z,5.57
2023-05-01T09:57:46.408Z,4.18
2023-05-01T10:00:15.295Z,3.88
2023-05-01T10:02:47.083Z,4.30
2023-05-01T10:05:14.134Z,5.07
2023-05-01T10:07:55.949Z,4.45
2023-05-01T10:10:22.807Z,3.85
2023-05-01T10:12:49.775Z,3.70
2023-05-01T10:15:25.478Z,3.95
2023-05-01T10:17:54.145Z,4.60
2023-05-01T10:20:21.294Z,4.65
2023-05-01T10:22:48.778Z,6.22
2023-05-01T10:25:18.680Z,4.43
2023-05-01T10:27:45.912Z,3.15
2023-05-01T10:30:12.685Z,3.20
2023-05-01T10:32:41.792Z,3.08
2023-05-01T10:35:19.479Z,2.70
2023-05-01T10:37:57.345Z,2.78
2023-05-01T10:40:46.589Z,4.30
2023-05-01T10:43:21.120Z,30.77
2023-05-01T10:45:48.651Z,9.05
2023-05-01T10:48:43.814Z,7.82
2023-05-01T10:51:14.171Z,7.65
2023-05-01T10:53:42.259Z,22.35
2023-05-01T10:56:27.683Z,52.05
2023-05-01T10:59:04.499Z,21.45
2023-05-01T11:01:39.670Z,8.07
2023-05-01T11:04:27.134Z,15.57
2023-05-01T11:07:05.717Z,4.45
2023-05-01T11:09:54.976Z,6.13
2023-05-01T11:12:46.684Z,6.53
2023-05-01T11:15:25.645Z,3.20
2023-05-01T11:17:52.584Z,3.40
2023-05-01T11:20:25.423Z,5.43
2023-05-01T11:22:53.706Z,3.72
2023-05-01T11:25:30.319Z,2.25
2023-05-01T11:27:58.617Z,2.63
2023-05-01T11:30:25.768Z,3.97
2023-05-01T11:32:53.052Z,2.45
2023-05-01T11:35:21.936Z,3.15
2023-05-01T11:37:50.891Z,1.60
2023-05-01T11:40:25.789Z,2.40
2023-05-01T11:43:04.193Z,5.25
2023-05-01T11:45:31.620Z,2.20
2023-05-01T11:48:01.158Z,3.20
2023-05-01T11:50:37.169Z,2.80
2023-05-01T11:53:11.634Z,4.32
2023-05-01T11:55:41.200Z,3.42
2023-05-01T11:58:07.801Z,2.75
2023-05-01T12:00:37.841Z,2.83
2023-05-01T12:03:15.156Z,3.53
2023-05-01T12:05:43.922Z,3.00
2023-05-01T12:08:19.428Z,3.40
2023-05-01T12:10:49.139Z,3.10
2023-05-01T12:13:16.789Z,2.40
2023-05-01T12:15:46.729Z,3.53
2023-05-01T12:18:15.021Z,2.33
2023-05-01T12:20:47.358Z,1.73
2023-05-01T12:23:18.534Z,2.15
2023-05-01T12:25:46.511Z,2.25
2023-05-01T12:28:15.582Z,2.70
2023-05-01T12:30:43.323Z,2.35
2023-05-01T12:33:17.945Z,4.35
2023-05-01T12:35:46.668Z,2.50
2023-05-01T12:38:19.099Z,2.90
2023-05-01T12:40:56.687Z,4.45
2023-05-01T12:43:44.464Z,4.22
2023-05-01T12:46:14.485Z,2.40
2023-05-01T12:48:41.240Z,3.15
2023-05-01T12:51:08.111Z,2.03
2023-05-01T12:53:35.309Z,2.13
2023-05-01T12:56:03.267Z,2.10
2023-05-01T12:58:38.999Z,2.17
2023-05-01T13:01:06.581Z,2.10
2023-05-01T13:03:34.353Z,2.05
2023-05-01T13:06:03.826Z,2.95
2023-05-01T13:08:36.662Z,2.13
2023-05-01T13:11:14.584Z,2.05
2023-05-01T13:13:42.793Z,2.42
2023-05-01T13:16:12.119Z,2.33
2023-05-01T13:18:47.552Z,2.53
2023-05-01T13:21:22.835Z,2.35
2023-05-01T13:23:53.488Z,3.60
2023-05-01T13:26:27.327Z,2.63
2023-05-01T13:28:53.978Z,2.53
2023-05-01T13:31:20.791Z,4.00
2023-05-01T13:33:51.469Z,1.88
2023-05-01T13:36:26.278Z,2.03
2023-05-01T13:38:55.790Z,4.60
2023-05-01T13:41:24.167Z,4.47
2023-05-01T13:43:52.401Z,1.90
2023-05-01T13:46:21.375Z,2.30
2023-05-01T13:48:49.095Z,1.77
2023-05-01T13:51:24.804Z,2.70
2023-05-01T13:53:52.979Z,1.65
2023-05-01T13:56:19.534Z,1.92
2023-05-01T13:58:46.541Z,1.70
2023-05-01T14:01:22.471Z,1.50
2023-05-01T14:03:49.839Z,2.53
2023-05-01T14:06:18.892Z,2.65
2023-05-01T14:08:46.932Z,1.88
2023-05-01T14:11:14.585Z,2.22
2023-05-01T14:13:46.153Z,4.47
2023-05-01T14:16:26.397Z,2.58
2023-05-01T14:18:55.330Z,3.28
2023-05-01T14:21:23.833Z,1.60
2023-05-01T14:23:53.133Z,5.25
2023-05-01T14:26:21.021Z,2.67
2023-05-01T14:28:48.095Z,1.80
2023-05-01T14:31:25.422Z,3.53
2023-05-01T14:33:56.185Z,2.80
2023-05-01T14:36:23.194Z,2.08
2023-05-01T14:38:50.631Z,2.55
2023-05-01T14:41:20.939Z,2.72
2023-05-01T14:43:48.095Z,3.08
2023-05-01T14:46:17.060Z,2.45
2023-05-01T14:48:44.282Z,2.47
2023-05-01T14:51:12.405Z,2.63
2023-05-01T14:53:42.425Z,2.22
2023-05-01T14:56:09.155Z,4.82
2023-05-01T14:58:35.911Z,2.15
2023-05-01T15:01:02.595Z,3.63
2023-05-01T15:03:29.639Z,3.00
2023-05-01T15:05:57.406Z,2.00
2023-05-01T15:08:24.395Z,3.03
2023-05-01T15:10:53.810Z,3.70
2023-05-01T15:13:21.139Z,2.20
2023-05-01T15:15:48.140Z,3.15
2023-05-01T15:18:15.083Z,2.67
2023-05-01T15:20:41.724Z,2.20
2023-05-01T15:23:08.550Z,3.22
2023-05-01T15:25:35.496Z,2.47
2023-05-01T15:28:02.075Z,2.30
2023-05-01T15:30:28.832Z,3.67
2023-05-01T15:32:55.719Z,2.72
2023-05-01T15:35:23.628Z,4.30
2023-05-01T15:37:50.704Z,4.22
2023-05-01T15:40:17.356Z,3.75
2023-05-01T15:42:45.377Z,2.17
2023-05-01T15:45:11.917Z,3.13
2023-05-01T15:47:38.634Z,4.05
2023-05-01T15:50:09.509Z,4.05
2023-05-01T15:52:36.099Z,3.35
2023-05-01T15:55:02.739Z,3.78
2023-05-01T15:57:30.801Z,2.75
2023-05-01T15:59:57.624Z,4.50
2023-05-01T16:02:26.998Z,3.22
2023-05-01T16:04:54.060Z,6.88
2023-05-01T16:07:21.527Z,8.18
2023-05-01T16:09:49.027Z,7.95
2023-05-01T16:12:15.809Z,7.07
2023-05-01T16:14:42.365Z,10.48
2023-05-01T16:17:09.470Z,6.28
2023-05-01T16:19:39.349Z,5.32
2023-05-01T16:22:06.998Z,8.88
2023-05-01T16:24:34.444Z,5.97
2023-05-01T16:27:01.516Z,6.53
2023-05-01T16:29:28.464Z,5.20
2023-05-01T16:31:55.088Z,5.28
2023-05-01T16:34:25.341Z,5.72
2023-05-01T16:36:52.781Z,5.68
2023-05-01T16:39:21.686Z,6.07
2023-05-01T16:41:51.699Z,4.95
2023-05-01T16:44:19.578Z,3.30
2023-05-01T16:46:56.562Z,5.10
2023-05-01T16:49:25.046Z,3.13
2023-05-01T16:51:56.346Z,4.35
2023-05-01T16:54:24.866Z,5.10
2023-05-01T16:56:51.688Z,4.75
2023-05-01T16:59:18.218Z,7.05
2023-05-01T17:01:44.788Z,4.07
2023-05-01T17:04:12.011Z,4.15
2023-05-01T17:06:38.780Z,4.60
2023-05-01T17:09:06.267Z,4.03
2023-05-01T17:11:32.781Z,4.05
2023-05-01T17:13:59.291Z,3.83
2023-05-01T17:16:25.883Z,4.07
2023-05-01T17:18:52.676Z,3.38
2023-05-01T17:21:19.322Z,3.33
2023-05-01T17:23:45.884Z,2.70
2023-05-01T17:26:15.767Z,2.38
2023-05-01T17:28:42.379Z,3.72
2023-05-01T17:31:09.271Z,4.70
2023-05-01T17:33:35.854Z,3.90
2023-05-01T17:36:02.839Z,2.78
2023-05-01T17:38:29.380Z,3.38
2023-05-01T17:40:55.917Z,2.75
2023-05-01T17:43:22.486Z,2.60
2023-05-01T17:45:50.103Z,3.72
2023-05-01T17:48:19.356Z,2.60
2023-05-01T17:50:46.028Z,4.30
2023-05-01T17:53:12.595Z,3.00
2023-05-01T17:55:40.006Z,3.38
2023-05-01T17:58:07.002Z,2.85
2023-05-01T18:00:33.621Z,6.30
2023-05-01T18:03:00.263Z,2.30
2023-05-01T18:05:27.154Z,5.22
2023-05-01T18:07:53.672Z,3.88
2023-05-01T18:10:20.449Z,2.15
2023-05-01T18:12:49.625Z,4.45
2023-05-01T18:15:22.225Z,2.08
2023-05-01T18:17:49.810Z,2.30
2023-05-01T18:20:16.618Z,3.17
2023-05-01T18:22:43.283Z,2.20
2023-05-01T18:25:10.002Z,4.03
2023-05-01T18:27:41.484Z,2.53
2023-05-01T18:30:09.008Z,2.40
2023-05-01T18:32:47.041Z,2.53
2023-05-01T18:35:15.885Z,2.17
2023-05-01T18:37:43.830Z,2.30
2023-05-01T18:40:10.831Z,2.38
2023-05-01T18:42:37.397Z,4.22
2023-05-01T18:45:04.339Z,2.42
2023-05-01T18:47:32.295Z,2.20
2023-05-01T18:49:59.330Z,2.95
2023-05-01T18:52:26.058Z,2.70
2023-05-01T18:54:52.636Z,13.93
2023-05-01T18:57:19.153Z,2.65
2023-05-01T18:59:46.722Z,3.22
2023-05-01T19:02:13.325Z,2.85
2023-05-01T19:04:56.188Z,3.17
2023-05-01T19:07:24.804Z,2.22
2023-05-01T19:09:51.327Z,2.30
2023-05-01T19:12:17.885Z,2.03
2023-05-01T19:14:44.484Z,2.03
2023-05-01T19:17:11.198Z,2.60
2023-05-01T19:19:37.745Z,1.92
2023-05-01T19:22:04.330Z,1.83
2023-05-01T19:24:30.942Z,2.25
2023-05-01T19:26:57.485Z,1.85
2023-05-01T19:29:24.212Z,2.28
2023-05-01T19:31:50.812Z,3.40
2023-05-01T19:34:17.500Z,7.03
2023-05-01T19:36:44.064Z,6.00
2023-05-01T19:39:10.625Z,2.88
2023-05-01T19:41:37.158Z,5.18
2023-05-01T19:44:03.867Z,4.70
2023-05-01T19:46:30.548Z,3.38
2023-05-01T19:48:57.227Z,2.80
2023-05-01T19:51:23.826Z,3.92
2023-05-01T19:53:50.421Z,26.98
2023-05-01T19:56:16.947Z,22.40
2023-05-01T19:58:43.482Z,16.60
2023-05-01T20:01:11.768Z,6.72
2023-05-01T20:03:38.684Z,6.93
2023-05-01T20:06:06.223Z,3.63
2023-05-01T20:08:33.362Z,9.52
2023-05-01T20:11:01.019Z,7.20
2023-05-01T20:13:27.570Z,8.73
2023-05-01T20:15:54.320Z,6.40
2023-05-01T20:18:22.103Z,3.03
2023-05-01T20:20:48.783Z,2.95
2023-05-01T20:23:17.444Z,2.78
2023-05-01T20:25:46.200Z,2.35
2023-05-01T20:28:14.628Z,3.78
2023-05-01T20:30:43.492Z,3.40
2023-05-01T20:33:11.113Z,3.08
2023-05-01T20:35:38.332Z,4.50
2023-05-01T20:38:04.960Z,2.50
2023-05-01T20:40:32.535Z,2.60
2023-05-01T20:42:59.682Z,3.63
2023-05-01T20:45:26.920Z,2.67
2023-05-01T20:47:53.541Z,2.67
2023-05-01T20:50:20.533Z,4.60
2023-05-01T20:52:47.130Z,2.83
2023-05-01T20:55:13.736Z,2.67
2023-05-01T20:57:40.468Z,3.80
2023-05-01T21:00:07.952Z,6.95
2023-05-01T21:02:38.262Z,11.48
2023-05-01T21:05:05.880Z,4.25
2023-05-01T21:07:35.565Z,4.30
2023-05-01T21:10:03.946Z,4.78
2023-05-01T21:12:30.543Z,2.88
2023-05-01T21:14:57.575Z,2.65
2023-05-01T21:17:24.167Z,3.78
2023-05-01T21:19:50.822Z,2.75
2023-05-01T21:22:22.107Z,6.63
2023-05-01T21:24:56.893Z,5.93
2023-05-01T21:27:24.757Z,5.28
2023-05-01T21:29:59.482Z,3.55
2023-05-01T21:32:41.811Z,3.97
2023-05-01T21:35:09.797Z,3.13
2023-05-01T21:37:37.180Z,6.15
2023-05-01T21:40:06.243Z,6.40
2023-05-01T21:42:39.009Z,3.03
2023-05-01T21:45:07.502Z,4.20
2023-05-01T21:47:38.825Z,3.33
2023-05-01T21:50:07.551Z,4.57
2023-05-01T21:52:34.793Z,2.65
2023-05-01T21:55:03.512Z,4.30
2023-05-01T21:57:34.252Z,3.97
2023-05-01T22:00:01.571Z,3.50
2023-05-01T22:02:38.454Z,6.55
2023-05-01T22:05:06.572Z,4.03
2023-05-01T22:07:34.006Z,5.43
2023-05-01T22:10:01.765Z,3.15
2023-05-01T22:12:28.488Z,3.97
2023-05-01T22:14:55.164Z,3.65
2023-05-01T22:17:24.365Z,2.90
2023-05-01T22:19:51.640Z,2.63
2023-05-01T22:22:19.264Z,4.10
2023-05-01T22:24:46.195Z,4.65
2023-05-01T22:27:12.938Z,5.00
2023-05-01T22:29:39.490Z,4.03
2023-05-01T22:32:06.168Z,4.93
2023-05-01T22:34:32.797Z,2.65
2023-05-01T22:36:59.331Z,3.17
2023-05-01T22:39:25.962Z,3.30
2023-05-01T22:41:52.529Z,3.85
2023-05-01T22:44:20.434Z,3.05
2023-05-01T22:46:48.963Z,3.90
2023-05-01T22:49:15.604Z,3.38
2023-05-01T22:51:42.133Z,2.60
2023-05-01T22:54:08.680Z,4.47
2023-05-01T22:56:35.219Z,5.32
2023-05-01T22:59:02.170Z,2.92
2023-05-01T23:01:28.792Z,4.18
2023-05-01T23:03:55.555Z,3.40
2023-05-01T23:06:22.302Z,3.28
2023-05-01T23:08:52.634Z,3.15
2023-05-01T23:11:21.001Z,3.88
2023-05-01T23:13:49.668Z,3.38
2023-05-01T23:16:16.848Z,3.80
2023-05-01T23:18:45.064Z,3.47
2023-05-01T23:21:13.732Z,4.10
2023-05-01T23:23:43.397Z,3.35
2023-05-01T23:26:15.439Z,3.85
2023-05-01T23:28:43.004Z,4.43
2023-05-01T23:31:26.040Z,4.25
2023-05-01T23:33:53.675Z,6.68
2023-05-01T23:36:20.814Z,3.53
2023-05-01T23:38:47.641Z,4.18
2023-05-01T23:41:14.929Z,5.30
2023-05-01T23:43:41.944Z,3.45
2023-05-01T23:46:08.623Z,4.20
2023-05-01T23:48:35.799Z,4.38
2023-05-01T23:51:02.890Z,3.95
2023-05-01T23:53:30.068Z,3.47
2023-05-01T23:55:56.749Z,3.35
2023-05-01T23:58:23.861Z,3.30
